Terminal Aerodrome Forecast
Issued by NWS

Home | Current Version | Previous Version | Text Only | Print | Product List | Glossary On
Versions: 1 2 3 4 5 6 7 8 9 10 11 12 13 14 15 16 17 18 19 20 21 22
000
FTAK31 PAFA 202335
TAFAUN
TAF
PAUN 202335Z 2100/2124 07018KT P6SM SCT050 BKN100 OVC200
     FM210300 10018G24KT P6SM SCT035 BKN050 OVC100
     FM210600 10020G28KT 6SM -SN BLSN BR SCT015 BKN025 OVC035
     FM210900 10030G38KT 1/2SM SN BLSN BKN007 OVC020=

USA.gov is the U.S. government's official web portal to all federal, state and local government web resources and services.